Terminal Aerodrome Forecast
Issued by NWS Midland/Odessa, TX

Home | Current Version | Previous Version | Text Only | Print | Product List | Glossary On
Versions: 1 2 3 4 5 6 7 8 9 10 11 12 13 14 15 16 17 18
000
FTUS44 KMAF 111600 AAB
TAFMAF
TAF AMD
KMAF 111601Z 1116/1212 19011KT P6SM BKN028
     FM111700 17012G19KT P6SM BKN040
     FM120000 15016G24KT P6SM SCT050 BKN250
     FM120400 14011KT P6SM SCT040 SCT120=

USA.gov is the U.S. government's official web portal to all federal, state and local government web resources and services.